FW0129 Weather Reports


Display with metric or nautical units.
time (UTC)temp
F
wind
direction
speed
MPH
gust
MPH
rain 1hr
in
rain 24hr
in
rain mn
in
humidity
%
barometer
mb
20190325012003 74 356 1.0 2.0 0.00 0.00 0.00 68 985.5
20190325010003 75 28 1.0 3.0 0.00 0.00 0.00 65 985.3
20190325004003 77 26 3.0 8.0 0.00 0.00 0.00 63 985.2
20190325003003 77 14 2.0 5.0 0.00 0.00 0.00 62 985.1
20190325002003 78 359 2.0 4.0 0.00 0.00 0.00 60 985.1
20190325001003 78 22 3.0 6.0 0.00 0.00 0.00 60 985.0
20190325000003 78 11 2.0 5.0 0.00 0.00 0.00 59 985.1
20190324234003 79 34 2.0 5.0 0.00 0.00 0.00 58 985.1
20190324232004 79 20 3.0 7.0 0.00 0.00 0.00 58 985.1
20190324222003 80 333 2.0 5.0 0.00 0.00 0.00 57 985.7
20190324221003 79 282 4.0 10.0 0.00 0.00 0.00 58 985.8
20190324220003 79 346 2.0 5.0 0.00 0.00 0.00 59 986.0
20190324215004 79 289 3.0 13.0 0.00 0.00 0.00 59 986.0
20190324214003 79 318 4.0 10.0 0.00 0.00 0.00 60 986.1
20190324211003 78 353 3.0 8.0 0.00 0.00 0.00 62 986.4
20190324210003 79 356 3.0 6.0 0.00 0.00 0.00 61 986.5
20190324205003 79 312 3.0 10.0 0.00 0.00 0.00 62 986.6
20190324204003 78 15 3.0 8.0 0.00 0.00 0.00 62 986.7
20190324201003 78 318 3.0 11.0 0.00 0.00 0.00 63 987.0
20190324200003 78 290 3.0 7.0 0.00 0.00 0.00 63 987.1
20190324195003 77 290 3.0 8.0 0.00 0.00 0.00 65 987.4
20190324194003 77 288 4.0 12.0 0.00 0.00 0.00 64 987.4
20190324193003 77 275 2.0 6.0 0.00 0.00 0.00 65 987.6
20190324191003 76 278 4.0 12.0 0.00 0.00 0.00 66 988.1
20190324190003 76 277 3.0 10.0 0.00 0.00 0.00 67 988.1
20190324182003 73 274 3.0 7.0 0.00 0.00 0.00 72 988.7
20190324181003 73 273 2.0 6.0 0.00 0.00 0.00 73 988.7
20190324174004 72 274 3.0 11.0 0.00 0.00 0.00 75 989.0
20190324173004 71 273 5.0 11.0 0.00 0.00 0.00 76 989.0
20190324171003 71 267 4.0 7.0 0.00 0.00 0.00 76 989.2
20190324170003 70 272 4.0 10.0 0.00 0.00 0.00 77 989.2
20190324165003 70 278 4.0 10.0 0.00 0.00 0.00 78 989.2
20190324164003 70 281 4.0 10.0 0.00 0.00 0.00 79 989.3
20190324163004 70 280 4.0 7.0 0.00 0.00 0.00 80 989.4
20190324162004 70 278 5.0 10.0 0.00 0.00 0.00 80 989.4
20190324161003 69 277 5.0 10.0 0.00 0.00 0.00 80 989.4
20190324155003 69 277 2.0 6.0 0.00 0.00 0.00 82 989.3
20190324152003 68 279 4.0 10.0 0.00 0.00 0.00 84 989.4
20190324151003 68 278 3.0 9.0 0.00 0.00 0.00 85 989.3
20190324150004 67 279 4.0 10.0 0.00 0.00 0.00 85 989.3
20190324143004 67 276 3.0 5.0 0.00 0.00 0.00 87 989.2
20190324142004 67 274 4.0 8.0 0.00 0.00 0.00 87 989.1
20190324140003 66 275 4.0 9.0 0.00 0.00 0.00 88 989.0
20190324132003 65 281 4.0 9.0 0.00 0.00 0.00 90 988.7
20190324131004 65 277 1.0 4.0 0.00 0.00 0.00 92 988.8
20190324130004 64 297 1.0 3.0 0.00 0.00 0.00 93 988.5
20190324125004 64 14 0.0 3.0 0.00 0.00 0.00 93 988.5
20190324124003 64 144 0.0 2.0 0.00 0.00 0.00 93 988.3
20190324115003 64 0 0.0 0.0 0.00 0.00 0.00 93 987.9
20190324105004 64 38 2.0 5.0 0.00 0.00 0.00 92 987.5
20190324102004 64 334 0.0 3.0 0.00 0.00 0.00 92 987.7
20190324095003 65 19 1.0 4.0 0.00 0.00 0.00 90 987.9
20190324093003 65 21 2.0 4.0 0.00 0.00 0.00 90 987.7
20190324092003 65 17 1.0 4.0 0.00 0.00 0.00 89 987.7
20190324090003 65 15 1.0 3.0 0.00 0.00 0.00 89 987.8
20190324083004 65 335 1.0 4.0 0.00 0.00 0.00 88 987.7
20190324082003 65 330 1.0 5.0 0.00 0.00 0.00 88 987.8
20190324081004 65 271 1.0 3.0 0.00 0.00 0.00 88 988.0
20190324073003 65 310 1.0 6.0 0.00 0.00 0.00 88 988.0
20190324071003 65 326 1.0 6.0 0.00 0.00 0.00 88 988.1
20190324070004 65 293 3.0 7.0 0.00 0.00 0.00 88 988.0
20190324065004 65 292 2.0 7.0 0.00 0.00 0.00 88 987.9
20190324061003 66 276 3.0 8.0 0.00 0.00 0.00 87 988.1
20190324060003 66 305 3.0 8.0 0.00 0.00 0.00 87 987.9
20190324055952 66 305 3.0 8.0 0.00 0.00 0.00 87 987.9
20190324053952 66 298 3.0 7.0 0.00 0.00 0.00 87 987.9
20190324052952 66 299 3.0 6.0 0.00 0.00 0.00 87 987.8
20190324042953 66 17 5.0 10.0 0.00 0.00 0.00 87 987.5
20190324035953 66 23 5.0 10.0 0.00 0.00 0.00 86 987.8
20190324034953 66 28 6.0 11.0 0.00 0.00 0.00 86 987.7
20190324033953 66 22 4.0 9.0 0.00 0.00 0.00 86 987.8
20190324032953 66 21 4.0 9.0 0.00 0.00 0.00 86 987.8
20190324031952 66 24 4.0 8.0 0.00 0.00 0.00 86 987.8
20190324030953 66 27 5.0 9.0 0.00 0.00 0.00 86 987.6
20190324025953 66 27 4.0 7.0 0.00 0.00 0.00 86 987.5
20190324021953 65 19 2.0 5.0 0.00 0.00 0.00 88 987.5
20190324020953 65 31 2.0 4.0 0.00 0.00 0.00 88 987.7
20190324013953 66 30 2.0 7.0 0.00 0.00 0.00 88 987.6